createdAt,value
2019-03-26T00:00:29.275Z,1023.44
2019-03-26T00:01:29.255Z,1023.40
2019-03-26T00:02:29.225Z,1023.46
2019-03-26T00:03:29.202Z,1023.48
2019-03-26T00:04:29.188Z,1023.53
2019-03-26T00:05:29.154Z,1023.54
2019-03-26T00:06:29.132Z,1023.56
2019-03-26T00:07:29.108Z,1023.61
2019-03-26T00:08:29.092Z,1023.58
2019-03-26T00:09:29.062Z,1023.64
2019-03-26T00:10:29.034Z,1023.56
2019-03-26T00:11:29.013Z,1023.61
2019-03-26T00:12:28.988Z,1023.62
2019-03-26T00:13:28.971Z,1023.65
2019-03-26T00:14:28.941Z,1023.64
2019-03-26T00:15:28.924Z,1023.67
2019-03-26T00:16:28.895Z,1023.67
2019-03-26T00:17:28.869Z,1023.64
2019-03-26T00:18:28.852Z,1023.68
2019-03-26T00:19:28.823Z,1023.67
2019-03-26T00:20:28.799Z,1023.71
2019-03-26T00:21:28.782Z,1023.64
2019-03-26T00:22:28.749Z,1023.71
2019-03-26T00:23:28.825Z,1023.70
2019-03-26T00:24:28.765Z,1023.74
2019-03-26T00:25:28.682Z,1023.71
2019-03-26T00:26:28.655Z,1023.73
2019-03-26T00:27:28.633Z,1023.76
2019-03-26T00:28:28.608Z,1023.67
2019-03-26T00:29:28.584Z,1023.71
2019-03-26T00:30:28.561Z,1023.69
2019-03-26T00:31:28.537Z,1023.68
2019-03-26T00:32:28.522Z,1023.70
2019-03-26T00:33:36.301Z,1023.70
2019-03-26T00:34:28.463Z,1023.67
2019-03-26T00:35:28.440Z,1023.68
2019-03-26T00:36:28.421Z,1023.68
2019-03-26T00:37:28.392Z,1023.70
2019-03-26T00:38:28.456Z,1023.66
2019-03-26T00:39:28.349Z,1023.67
2019-03-26T00:40:28.334Z,1023.71
2019-03-26T00:41:28.299Z,1023.74
2019-03-26T00:42:28.288Z,1023.74
2019-03-26T00:43:28.253Z,1023.75
2019-03-26T00:44:28.232Z,1023.73
2019-03-26T00:45:28.210Z,1023.75
2019-03-26T00:46:28.181Z,1023.76
2019-03-26T00:47:28.158Z,1023.72
2019-03-26T00:48:28.148Z,1023.79
2019-03-26T00:49:28.110Z,1023.75
2019-03-26T00:50:28.086Z,1023.75
2019-03-26T00:51:28.065Z,1023.75
2019-03-26T00:52:28.040Z,1023.74
2019-03-26T00:53:28.015Z,1023.74
2019-03-26T00:54:28.000Z,1023.76
2019-03-26T00:55:27.970Z,1023.74
2019-03-26T00:56:27.948Z,1023.80
2019-03-26T00:57:27.924Z,1023.75
2019-03-26T00:58:27.900Z,1023.76
2019-03-26T00:59:27.878Z,1023.78
2019-03-26T01:00:27.851Z,1023.77
2019-03-26T01:01:27.828Z,1023.78
2019-03-26T01:02:27.804Z,1023.78
2019-03-26T01:03:27.781Z,1023.82
2019-03-26T01:04:33.118Z,1023.81
2019-03-26T01:05:27.736Z,1023.84
2019-03-26T01:06:27.713Z,1023.87
2019-03-26T01:07:27.686Z,1023.87
2019-03-26T01:08:27.663Z,1023.85
2019-03-26T01:09:27.642Z,1023.86
2019-03-26T01:10:27.623Z,1023.94
2019-03-26T01:11:27.597Z,1023.91
2019-03-26T01:12:27.574Z,1023.93
2019-03-26T01:13:27.544Z,1023.99
2019-03-26T01:14:27.528Z,1023.97
2019-03-26T01:15:27.497Z,1023.98
2019-03-26T01:16:27.472Z,1023.98
2019-03-26T01:17:27.451Z,1024.02
2019-03-26T01:18:27.427Z,1024.01
2019-03-26T01:19:27.402Z,1024.03
2019-03-26T01:20:27.378Z,1024.01
2019-03-26T01:21:27.354Z,1023.96
2019-03-26T01:22:27.330Z,1024.00
2019-03-26T01:23:27.306Z,1023.97
2019-03-26T01:24:27.290Z,1023.98
2019-03-26T01:25:27.258Z,1023.96
2019-03-26T01:26:27.241Z,1023.96
2019-03-26T01:27:27.212Z,1023.97
2019-03-26T01:28:27.197Z,1023.92
2019-03-26T01:29:27.165Z,1023.90
2019-03-26T01:30:27.150Z,1023.93
2019-03-26T01:31:27.122Z,1023.91
2019-03-26T01:32:27.145Z,1023.90
2019-03-26T01:33:27.077Z,1023.91
2019-03-26T01:34:27.047Z,1023.90
2019-03-26T01:35:27.029Z,1023.92
2019-03-26T01:36:27.001Z,1023.95
2019-03-26T01:37:26.975Z,1023.96
2019-03-26T01:38:26.950Z,1023.96
2019-03-26T01:39:26.927Z,1024.00
2019-03-26T01:40:26.904Z,1023.93
2019-03-26T01:41:26.879Z,1024.00
2019-03-26T01:42:26.866Z,1024.00
2019-03-26T01:43:26.836Z,1024.01
2019-03-26T01:44:26.808Z,1024.04
2019-03-26T01:45:26.802Z,1024.03
2019-03-26T01:46:26.761Z,1024.02
2019-03-26T01:47:26.738Z,1024.05
2019-03-26T01:48:26.715Z,1024.00
2019-03-26T01:49:26.688Z,1024.08
2019-03-26T01:50:26.668Z,1024.03
2019-03-26T01:51:26.642Z,1024.06
2019-03-26T01:52:26.622Z,1024.04
2019-03-26T01:53:26.605Z,1024.07
2019-03-26T01:54:26.571Z,1024.05
2019-03-26T01:55:26.558Z,1024.04
2019-03-26T01:56:26.525Z,1024.04
2019-03-26T01:57:26.500Z,1024.03
2019-03-26T01:58:26.475Z,1024.01
2019-03-26T01:59:26.453Z,1024.00
2019-03-26T02:00:26.429Z,1024.02
2019-03-26T02:01:26.413Z,1024.02
2019-03-26T02:02:26.383Z,1024.03
2019-03-26T02:03:26.361Z,1024.01
2019-03-26T02:04:26.343Z,1023.98
2019-03-26T02:05:26.311Z,1023.99
2019-03-26T02:06:26.286Z,1024.02
2019-03-26T02:07:26.266Z,1023.99
2019-03-26T02:08:26.240Z,1024.02
2019-03-26T02:09:26.218Z,1024.05
2019-03-26T02:10:26.194Z,1024.06
2019-03-26T02:11:26.169Z,1024.04
2019-03-26T02:12:26.164Z,1024.05
2019-03-26T02:13:26.121Z,1024.01
2019-03-26T02:14:26.100Z,1024.04
2019-03-26T02:15:26.074Z,1024.01
2019-03-26T02:16:26.052Z,1024.04
2019-03-26T02:17:26.027Z,1024.02
2019-03-26T02:18:26.012Z,1023.98
2019-03-26T02:19:25.979Z,1024.00
2019-03-26T02:20:25.957Z,1024.00
2019-03-26T02:21:25.932Z,1023.96
2019-03-26T02:22:25.910Z,1023.94
2019-03-26T02:23:25.886Z,1024.01
2019-03-26T02:24:25.866Z,1024.01
2019-03-26T02:25:25.839Z,1024.03
2019-03-26T02:26:25.815Z,1024.02
2019-03-26T02:27:25.791Z,1024.02
2019-03-26T02:28:25.769Z,1024.02
2019-03-26T02:29:25.783Z,1024.06
2019-03-26T02:30:25.720Z,1024.04
2019-03-26T02:31:25.743Z,1024.01
2019-03-26T02:32:25.678Z,1023.98
2019-03-26T02:33:25.650Z,1023.96
2019-03-26T02:34:25.667Z,1023.93
2019-03-26T02:35:25.603Z,1024.01
2019-03-26T02:36:25.584Z,1023.93
2019-03-26T02:37:25.556Z,1023.88
2019-03-26T02:38:25.539Z,1023.87
2019-03-26T02:39:25.512Z,1023.84
2019-03-26T02:40:25.490Z,1023.83
2019-03-26T02:41:25.465Z,1023.88
2019-03-26T02:42:25.438Z,1023.86
2019-03-26T02:43:25.418Z,1023.92
2019-03-26T02:44:25.395Z,1023.91
2019-03-26T02:45:25.367Z,1023.88
2019-03-26T02:46:25.345Z,1023.90
2019-03-26T02:47:25.319Z,1023.88
2019-03-26T02:48:25.298Z,1023.91
2019-03-26T02:49:25.281Z,1023.92
2019-03-26T02:50:25.248Z,1023.90
2019-03-26T02:51:25.235Z,1023.88
2019-03-26T02:52:25.204Z,1023.91
2019-03-26T02:53:25.188Z,1023.94
2019-03-26T02:54:25.155Z,1023.97
2019-03-26T02:55:25.132Z,1023.96
2019-03-26T02:56:25.109Z,1023.98
2019-03-26T02:57:25.106Z,1023.98
2019-03-26T02:58:25.063Z,1023.98
2019-03-26T02:59:25.038Z,1024.00
2019-03-26T03:00:25.015Z,1024.00
2019-03-26T03:01:24.988Z,1024.05
2019-03-26T03:02:24.968Z,1024.05
2019-03-26T03:03:24.949Z,1024.02
2019-03-26T03:04:24.921Z,1023.99
2019-03-26T03:05:35.175Z,1024.01
2019-03-26T03:06:24.872Z,1024.00
2019-03-26T03:07:24.849Z,1023.98
2019-03-26T03:08:24.823Z,1024.00
2019-03-26T03:09:24.805Z,1023.98
2019-03-26T03:10:24.776Z,1023.99
2019-03-26T03:11:24.753Z,1023.97
2019-03-26T03:12:24.731Z,1023.98
2019-03-26T03:13:24.715Z,1024.02
2019-03-26T03:14:24.682Z,1024.00
2019-03-26T03:15:24.659Z,1023.98
2019-03-26T03:16:24.635Z,1023.98
2019-03-26T03:17:24.618Z,1023.94
2019-03-26T03:18:24.589Z,1023.90
2019-03-26T03:19:24.563Z,1023.95
2019-03-26T03:20:24.541Z,1023.98
2019-03-26T03:21:24.515Z,1024.02
2019-03-26T03:22:24.494Z,1024.01
2019-03-26T03:23:24.478Z,1024.04
2019-03-26T03:24:24.447Z,1023.99
2019-03-26T03:25:24.423Z,1024.03
2019-03-26T03:26:24.399Z,1023.98
2019-03-26T03:27:24.376Z,1023.99
2019-03-26T03:28:24.356Z,1023.99
2019-03-26T03:29:24.335Z,1023.98
2019-03-26T03:30:24.322Z,1023.99
2019-03-26T03:31:24.283Z,1023.98
2019-03-26T03:32:24.262Z,1023.95
2019-03-26T03:33:24.234Z,1023.97
2019-03-26T03:34:24.212Z,1023.97
2019-03-26T03:35:24.188Z,1023.97
2019-03-26T03:36:24.166Z,1023.96
2019-03-26T03:37:24.147Z,1023.96
2019-03-26T03:38:24.117Z,1023.96
2019-03-26T03:39:24.096Z,1023.97
2019-03-26T03:40:24.098Z,1023.93
2019-03-26T03:41:24.045Z,1023.94
2019-03-26T03:42:24.022Z,1023.97
2019-03-26T03:43:24.001Z,1023.97
2019-03-26T03:44:23.976Z,1023.92
2019-03-26T03:45:23.950Z,1023.95
2019-03-26T03:46:23.926Z,1023.95
2019-03-26T03:47:23.907Z,1023.94
2019-03-26T03:48:23.881Z,1023.94
2019-03-26T03:49:23.864Z,1024.01
2019-03-26T03:50:23.833Z,1024.00
2019-03-26T03:51:23.812Z,1023.99
2019-03-26T03:52:23.807Z,1024.01
2019-03-26T03:53:23.784Z,1024.03
2019-03-26T03:54:23.747Z,1024.03
2019-03-26T03:55:23.715Z,1024.05
2019-03-26T03:56:23.693Z,1024.12
2019-03-26T03:57:23.675Z,1024.08
2019-03-26T03:58:23.646Z,1024.06
2019-03-26T03:59:23.622Z,1024.02
2019-03-26T04:00:23.603Z,1024.02
2019-03-26T04:01:23.581Z,1024.04
2019-03-26T04:02:23.560Z,1024.03
2019-03-26T04:03:23.525Z,1024.02
2019-03-26T04:04:23.503Z,1023.99
2019-03-26T04:05:23.479Z,1023.99
2019-03-26T04:06:23.453Z,1023.98
2019-03-26T04:07:23.432Z,1023.98
2019-03-26T04:08:23.409Z,1024.02
2019-03-26T04:09:23.385Z,1024.03
2019-03-26T04:10:23.365Z,1024.01
2019-03-26T04:11:23.346Z,1023.99
2019-03-26T04:12:23.314Z,1024.06
2019-03-26T04:13:23.289Z,1024.04
2019-03-26T04:14:23.266Z,1024.01
2019-03-26T04:15:23.243Z,1023.97
2019-03-26T04:16:23.218Z,1023.92
2019-03-26T04:17:23.205Z,1023.90
2019-03-26T04:18:23.183Z,1023.91
2019-03-26T04:19:23.156Z,1023.91
2019-03-26T04:20:23.129Z,1023.92
2019-03-26T04:21:23.103Z,1023.91
2019-03-26T04:22:23.076Z,1023.95
2019-03-26T04:23:23.058Z,1023.97
2019-03-26T04:24:23.039Z,1023.92
2019-03-26T04:25:23.006Z,1023.94
2019-03-26T04:26:22.989Z,1023.93
2019-03-26T04:27:22.962Z,1023.97
2019-03-26T04:28:22.943Z,1024.01
2019-03-26T04:29:22.924Z,1024.04
2019-03-26T04:30:22.890Z,1024.01
2019-03-26T04:31:22.866Z,1024.09
2019-03-26T04:32:22.852Z,1024.03
2019-03-26T04:33:22.817Z,1024.03
2019-03-26T04:34:22.879Z,1024.04
2019-03-26T04:35:22.776Z,1024.05
2019-03-26T04:36:26.073Z,1024.07
2019-03-26T04:37:22.721Z,1024.05
2019-03-26T04:38:22.711Z,1024.02
2019-03-26T04:39:22.676Z,1024.06
2019-03-26T04:40:22.654Z,1024.05
2019-03-26T04:41:22.629Z,1024.03
2019-03-26T04:42:22.604Z,1024.02
2019-03-26T04:43:22.588Z,1023.99
2019-03-26T04:44:22.557Z,1023.96
2019-03-26T04:45:22.549Z,1023.91
2019-03-26T04:46:22.508Z,1023.91
2019-03-26T04:47:22.486Z,1023.94
2019-03-26T04:48:22.462Z,1023.90
2019-03-26T04:49:22.448Z,1023.93
2019-03-26T04:50:22.422Z,1023.98
2019-03-26T04:51:22.390Z,1024.00
2019-03-26T04:52:22.368Z,1023.96
2019-03-26T04:53:22.344Z,1024.05
2019-03-26T04:54:22.318Z,1024.00
2019-03-26T04:55:22.297Z,1024.02
2019-03-26T04:56:22.272Z,1024.02
2019-03-26T04:57:22.248Z,1024.04
2019-03-26T04:58:22.224Z,1024.04
2019-03-26T04:59:22.200Z,1024.05
2019-03-26T05:00:22.178Z,1024.05
2019-03-26T05:01:22.165Z,1024.09
2019-03-26T05:02:22.134Z,1024.07
2019-03-26T05:03:22.107Z,1024.06
2019-03-26T05:04:22.082Z,1024.04
2019-03-26T05:05:22.060Z,1023.99
2019-03-26T05:06:22.034Z,1024.00
2019-03-26T05:07:22.011Z,1024.00
2019-03-26T05:08:21.990Z,1023.97
2019-03-26T05:09:21.965Z,1023.96
2019-03-26T05:10:21.941Z,1023.93
2019-03-26T05:11:21.917Z,1023.96
2019-03-26T05:12:21.892Z,1023.96
2019-03-26T05:13:21.869Z,1023.95
2019-03-26T05:14:21.848Z,1023.95
2019-03-26T05:15:21.820Z,1023.97
2019-03-26T05:16:21.797Z,1023.93
2019-03-26T05:17:21.775Z,1023.90
2019-03-26T05:18:21.749Z,1023.93
2019-03-26T05:19:21.725Z,1023.96
2019-03-26T05:20:21.704Z,1023.92
2019-03-26T05:21:21.678Z,1023.92
2019-03-26T05:22:24.252Z,1023.94
2019-03-26T05:23:21.633Z,1023.93
2019-03-26T05:24:21.609Z,1023.96
2019-03-26T05:25:21.585Z,1023.93
2019-03-26T05:26:21.559Z,1023.91
2019-03-26T05:27:21.542Z,1023.92
2019-03-26T05:28:21.510Z,1023.93
2019-03-26T05:29:21.486Z,1023.87
2019-03-26T05:30:21.464Z,1023.89
2019-03-26T05:31:21.448Z,1023.86
2019-03-26T05:32:21.417Z,1023.92
2019-03-26T05:33:21.392Z,1023.89
2019-03-26T05:34:21.369Z,1023.93
2019-03-26T05:35:21.344Z,1023.89
2019-03-26T05:36:21.323Z,1023.90
2019-03-26T05:37:21.301Z,1023.90
2019-03-26T05:38:21.279Z,1023.88
2019-03-26T05:39:21.251Z,1023.91
2019-03-26T05:40:21.235Z,1023.91
2019-03-26T05:41:21.202Z,1023.89
2019-03-26T05:42:21.179Z,1023.87
2019-03-26T05:43:21.154Z,1023.86
2019-03-26T05:44:21.129Z,1023.82
2019-03-26T05:45:21.110Z,1023.79
2019-03-26T05:46:21.086Z,1023.80
2019-03-26T05:47:21.063Z,1023.82
2019-03-26T05:48:21.035Z,1023.81
2019-03-26T05:49:21.010Z,1023.84
2019-03-26T05:50:20.989Z,1023.81
2019-03-26T05:51:20.964Z,1023.84
2019-03-26T05:52:20.944Z,1023.86
2019-03-26T05:53:20.916Z,1023.86
2019-03-26T05:54:20.895Z,1023.85
2019-03-26T05:55:20.870Z,1023.84
2019-03-26T05:56:20.853Z,1023.81
2019-03-26T05:57:20.822Z,1023.84
2019-03-26T05:58:20.799Z,1023.82
2019-03-26T05:59:20.778Z,1023.82
2019-03-26T06:00:20.752Z,1023.86
2019-03-26T06:01:20.728Z,1023.84
2019-03-26T06:02:20.706Z,1023.86
2019-03-26T06:03:20.678Z,1023.85
2019-03-26T06:04:20.656Z,1023.85
2019-03-26T06:05:20.636Z,1023.82
2019-03-26T06:06:20.660Z,1023.84
2019-03-26T06:07:20.586Z,1023.81
2019-03-26T06:08:20.564Z,1023.88
2019-03-26T06:09:20.544Z,1023.90
2019-03-26T06:10:20.519Z,1023.91
2019-03-26T06:11:20.499Z,1023.90
2019-03-26T06:12:20.467Z,1023.90
2019-03-26T06:13:20.445Z,1023.85
2019-03-26T06:14:20.420Z,1023.89
2019-03-26T06:15:20.397Z,1023.88
2019-03-26T06:16:20.371Z,1023.96
2019-03-26T06:17:20.356Z,1023.99
2019-03-26T06:18:20.526Z,1023.97
2019-03-26T06:19:20.301Z,1023.97
2019-03-26T06:20:20.279Z,1024.00
2019-03-26T06:21:20.262Z,1024.02
2019-03-26T06:22:20.233Z,1023.99
2019-03-26T06:23:20.209Z,1023.99
2019-03-26T06:24:20.183Z,1023.99
2019-03-26T06:25:20.160Z,1024.01
2019-03-26T06:26:20.135Z,1023.98
2019-03-26T06:27:20.114Z,1024.03
2019-03-26T06:28:20.089Z,1024.05
2019-03-26T06:29:20.073Z,1024.07
2019-03-26T06:30:20.051Z,1024.06
2019-03-26T06:31:20.018Z,1024.04
2019-03-26T06:32:19.994Z,1024.06
2019-03-26T06:33:19.982Z,1024.10
2019-03-26T06:34:19.949Z,1024.06
2019-03-26T06:35:19.941Z,1024.05
2019-03-26T06:36:19.905Z,1024.13
2019-03-26T06:37:19.875Z,1024.15
2019-03-26T06:38:19.853Z,1024.13
2019-03-26T06:39:20.027Z,1024.17
2019-03-26T06:40:19.809Z,1024.21
2019-03-26T06:41:19.791Z,1024.19
2019-03-26T06:42:19.761Z,1024.23
2019-03-26T06:43:19.736Z,1024.23
2019-03-26T06:44:19.715Z,1024.24
2019-03-26T06:45:19.698Z,1024.27
2019-03-26T06:46:19.676Z,1024.29
2019-03-26T06:47:19.643Z,1024.26
2019-03-26T06:48:19.620Z,1024.33
2019-03-26T06:49:19.595Z,1024.29
2019-03-26T06:50:19.580Z,1024.26
2019-03-26T06:51:19.551Z,1024.27
2019-03-26T06:52:19.526Z,1024.27
2019-03-26T06:53:19.514Z,1024.25
2019-03-26T06:54:19.480Z,1024.23
2019-03-26T06:55:19.457Z,1024.24
2019-03-26T06:56:19.437Z,1024.29
2019-03-26T06:57:19.410Z,1024.26
2019-03-26T06:58:19.385Z,1024.28
2019-03-26T06:59:19.374Z,1024.28
2019-03-26T07:00:19.345Z,1024.30
2019-03-26T07:01:19.314Z,1024.31
2019-03-26T07:02:19.292Z,1024.33
2019-03-26T07:03:19.284Z,1024.36
2019-03-26T07:04:19.247Z,1024.36
2019-03-26T07:05:19.221Z,1024.35
2019-03-26T07:06:19.210Z,1024.38
2019-03-26T07:07:31.040Z,1024.38
2019-03-26T07:08:19.154Z,1024.40
2019-03-26T07:09:19.132Z,1024.39
2019-03-26T07:10:19.109Z,1024.40
2019-03-26T07:11:19.083Z,1024.44
2019-03-26T07:12:19.072Z,1024.43
2019-03-26T07:13:19.054Z,1024.46
2019-03-26T07:14:19.020Z,1024.46
2019-03-26T07:15:18.992Z,1024.48
2019-03-26T07:16:19.009Z,1024.49
2019-03-26T07:17:18.944Z,1024.46
2019-03-26T07:18:18.929Z,1024.49
2019-03-26T07:19:18.908Z,1024.49
2019-03-26T07:20:18.882Z,1024.56
2019-03-26T07:21:18.852Z,1024.56
2019-03-26T07:22:18.828Z,1024.58
2019-03-26T07:23:18.816Z,1024.55
2019-03-26T07:24:18.791Z,1024.62
2019-03-26T07:25:18.760Z,1024.57
2019-03-26T07:26:18.745Z,1024.58
2019-03-26T07:27:18.714Z,1024.59
2019-03-26T07:28:18.709Z,1024.62
2019-03-26T07:29:18.668Z,1024.62
2019-03-26T07:30:18.643Z,1024.60
2019-03-26T07:31:18.623Z,1024.59
2019-03-26T07:32:18.600Z,1024.64
2019-03-26T07:33:18.576Z,1024.63
2019-03-26T07:34:18.557Z,1024.61
2019-03-26T07:35:18.539Z,1024.65
2019-03-26T07:36:18.521Z,1024.56
2019-03-26T07:37:18.493Z,1024.58
2019-03-26T07:38:18.463Z,1024.62
2019-03-26T07:39:18.454Z,1024.61
2019-03-26T07:40:18.417Z,1024.60
2019-03-26T07:41:18.397Z,1024.64
2019-03-26T07:42:18.373Z,1024.66
2019-03-26T07:43:18.351Z,1024.62
2019-03-26T07:44:18.335Z,1024.69
2019-03-26T07:45:18.321Z,1024.70
2019-03-26T07:46:18.283Z,1024.72
2019-03-26T07:47:18.267Z,1024.73
2019-03-26T07:48:18.241Z,1024.78
2019-03-26T07:49:18.223Z,1024.79
2019-03-26T07:50:18.203Z,1024.80
2019-03-26T07:51:18.175Z,1024.80
2019-03-26T07:52:18.161Z,1024.83
2019-03-26T07:53:18.133Z,1024.80
2019-03-26T07:54:18.104Z,1024.75
2019-03-26T07:55:18.085Z,1024.81
2019-03-26T07:56:18.061Z,1024.89
2019-03-26T07:57:18.041Z,1024.84
2019-03-26T07:58:18.018Z,1024.87
2019-03-26T07:59:17.997Z,1024.88
2019-03-26T08:00:18.096Z,1024.85
2019-03-26T08:01:17.955Z,1024.84
2019-03-26T08:02:17.936Z,1024.83
2019-03-26T08:03:21.024Z,1024.82
2019-03-26T08:04:17.891Z,1024.86
2019-03-26T08:05:29.309Z,1024.77
2019-03-26T08:06:17.845Z,1024.84
2019-03-26T08:07:17.834Z,1024.89
2019-03-26T08:08:17.803Z,1024.90
2019-03-26T08:09:17.847Z,1024.85
2019-03-26T08:10:17.762Z,1024.87
2019-03-26T08:11:17.741Z,1024.90
2019-03-26T08:12:17.726Z,1024.86
2019-03-26T08:13:17.715Z,1024.85
2019-03-26T08:14:17.688Z,1024.86
2019-03-26T08:15:20.166Z,1024.88
2019-03-26T08:16:17.642Z,1024.88
2019-03-26T08:17:17.644Z,1024.84
2019-03-26T08:18:17.611Z,1024.86
2019-03-26T08:19:17.575Z,1024.82
2019-03-26T08:20:17.558Z,1024.83
2019-03-26T08:21:17.542Z,1024.79
2019-03-26T08:22:17.513Z,1024.77
2019-03-26T08:23:17.503Z,1024.73
2019-03-26T08:24:17.473Z,1024.73
2019-03-26T08:25:17.455Z,1024.79
2019-03-26T08:26:17.431Z,1024.76
2019-03-26T08:27:17.414Z,1024.75
2019-03-26T08:28:17.399Z,1024.78
2019-03-26T08:29:17.371Z,1024.74
2019-03-26T08:30:17.355Z,1024.71
2019-03-26T08:31:17.345Z,1024.63
2019-03-26T08:32:17.311Z,1024.66
2019-03-26T08:33:17.293Z,1024.68
2019-03-26T08:34:17.268Z,1024.75
2019-03-26T08:35:17.253Z,1024.73
2019-03-26T08:36:17.228Z,1024.73
2019-03-26T08:37:17.207Z,1024.81
2019-03-26T08:38:17.196Z,1024.82
2019-03-26T08:39:17.169Z,1024.77
2019-03-26T08:40:17.148Z,1024.79
2019-03-26T08:41:17.126Z,1024.78
2019-03-26T08:42:17.106Z,1024.82
2019-03-26T08:43:17.095Z,1024.85
2019-03-26T08:44:17.077Z,1024.88
2019-03-26T08:45:17.047Z,1024.84
2019-03-26T08:46:17.034Z,1024.90
2019-03-26T08:47:17.006Z,1024.96
2019-03-26T08:48:16.987Z,1024.96
2019-03-26T08:49:16.968Z,1024.98
2019-03-26T08:50:16.948Z,1024.90
2019-03-26T08:51:16.928Z,1024.89
2019-03-26T08:52:16.910Z,1024.87
2019-03-26T08:53:16.897Z,1024.93
2019-03-26T08:54:16.871Z,1024.91
2019-03-26T08:55:16.872Z,1024.89
2019-03-26T08:56:16.844Z,1024.86
2019-03-26T08:57:16.814Z,1024.93
2019-03-26T08:58:16.803Z,1024.91
2019-03-26T08:59:16.776Z,1024.89
2019-03-26T09:00:16.760Z,1024.90
2019-03-26T09:01:16.748Z,1024.87
2019-03-26T09:02:16.721Z,1024.91
2019-03-26T09:03:16.702Z,1024.94
2019-03-26T09:04:16.693Z,1024.92
2019-03-26T09:05:16.671Z,1024.90
2019-03-26T09:06:16.644Z,1024.86
2019-03-26T09:07:16.630Z,1024.89
2019-03-26T09:08:25.335Z,1024.91
2019-03-26T09:09:16.594Z,1024.85
2019-03-26T09:10:16.571Z,1024.86
2019-03-26T09:11:16.551Z,1024.89
2019-03-26T09:12:16.530Z,1024.84
2019-03-26T09:13:16.511Z,1024.86
2019-03-26T09:14:16.491Z,1024.87
2019-03-26T09:15:16.479Z,1024.92
2019-03-26T09:16:16.455Z,1025.01
2019-03-26T09:17:19.602Z,1024.93
2019-03-26T09:18:16.413Z,1024.88
2019-03-26T09:19:16.395Z,1024.90
2019-03-26T09:20:16.374Z,1024.91
2019-03-26T09:21:16.353Z,1024.92
2019-03-26T09:22:16.487Z,1024.90
2019-03-26T09:23:16.315Z,1024.86
2019-03-26T09:24:16.301Z,1024.87
2019-03-26T09:25:16.301Z,1024.83
2019-03-26T09:26:16.257Z,1024.88
2019-03-26T09:27:16.234Z,1024.89
2019-03-26T09:28:16.216Z,1024.87
2019-03-26T09:29:16.217Z,1024.86
2019-03-26T09:30:16.176Z,1024.81
2019-03-26T09:31:16.154Z,1024.76
2019-03-26T09:32:16.149Z,1024.78
2019-03-26T09:33:16.116Z,1024.78
2019-03-26T09:34:16.094Z,1024.70
2019-03-26T09:35:16.075Z,1024.75
2019-03-26T09:36:16.054Z,1024.76
2019-03-26T09:37:16.039Z,1024.71
2019-03-26T09:38:16.012Z,1024.75
2019-03-26T09:39:16.056Z,1024.75
2019-03-26T09:40:16.012Z,1024.73
2019-03-26T09:41:15.952Z,1024.76
2019-03-26T09:42:15.931Z,1024.75
2019-03-26T09:43:15.909Z,1024.75
2019-03-26T09:44:15.892Z,1024.74
2019-03-26T09:45:15.873Z,1024.78
2019-03-26T09:46:15.850Z,1024.74
2019-03-26T09:47:16.778Z,1024.75
2019-03-26T09:48:15.822Z,1024.79
2019-03-26T09:49:15.785Z,1024.72
2019-03-26T09:50:15.770Z,1024.68
2019-03-26T09:51:15.753Z,1024.71
2019-03-26T09:52:15.725Z,1024.75
2019-03-26T09:53:15.707Z,1024.69
2019-03-26T09:54:15.682Z,1024.75
2019-03-26T09:55:15.665Z,1024.76
2019-03-26T09:56:27.934Z,1024.79
2019-03-26T09:57:15.627Z,1024.75
2019-03-26T09:58:15.599Z,1024.76
2019-03-26T09:59:15.579Z,1024.74
2019-03-26T10:00:15.574Z,1024.73
2019-03-26T10:01:15.536Z,1024.72
2019-03-26T10:02:15.524Z,1024.76
2019-03-26T10:03:15.506Z,1024.75
2019-03-26T10:04:15.482Z,1024.70
2019-03-26T10:05:15.462Z,1024.67
2019-03-26T10:06:23.196Z,1024.65
2019-03-26T10:07:21.496Z,1024.70
2019-03-26T10:08:17.767Z,1024.68
2019-03-26T10:09:15.380Z,1024.68
2019-03-26T10:10:15.351Z,1024.62
2019-03-26T10:11:15.330Z,1024.69
2019-03-26T10:12:15.311Z,1024.63
2019-03-26T10:13:15.294Z,1024.63
2019-03-26T10:14:15.269Z,1024.65
2019-03-26T10:15:15.247Z,1024.65
2019-03-26T10:16:15.228Z,1024.65
2019-03-26T10:17:15.208Z,1024.63
2019-03-26T10:18:15.189Z,1024.64
2019-03-26T10:19:16.974Z,1024.65
2019-03-26T10:20:15.144Z,1024.65
2019-03-26T10:21:15.123Z,1024.66
2019-03-26T10:22:15.112Z,1024.69
2019-03-26T10:23:15.084Z,1024.71
2019-03-26T10:24:15.061Z,1024.69
2019-03-26T10:25:15.040Z,1024.68
2019-03-26T10:26:15.028Z,1024.66
2019-03-26T10:27:15.000Z,1024.65
2019-03-26T10:28:14.994Z,1024.65
2019-03-26T10:29:29.164Z,1024.66
2019-03-26T10:30:14.944Z,1024.64
2019-03-26T10:31:14.919Z,1024.61
2019-03-26T10:32:14.898Z,1024.58
2019-03-26T10:33:14.879Z,1024.60
2019-03-26T10:34:14.858Z,1024.49
2019-03-26T10:35:14.839Z,1024.54
2019-03-26T10:36:14.821Z,1024.55
2019-03-26T10:37:14.798Z,1024.53
2019-03-26T10:38:14.779Z,1024.53
2019-03-26T10:39:14.765Z,1024.54
2019-03-26T10:40:14.740Z,1024.49
2019-03-26T10:41:14.725Z,1024.48
2019-03-26T10:42:14.706Z,1024.48
2019-03-26T10:43:14.680Z,1024.52
2019-03-26T10:44:14.672Z,1024.51
2019-03-26T10:45:14.641Z,1024.48
2019-03-26T10:46:14.620Z,1024.51
2019-03-26T10:47:14.612Z,1024.45
2019-03-26T10:48:14.585Z,1024.42
2019-03-26T10:49:14.573Z,1024.46
2019-03-26T10:50:14.544Z,1024.48
2019-03-26T10:51:14.524Z,1024.40
2019-03-26T10:52:14.505Z,1024.38
2019-03-26T10:53:14.484Z,1024.37
2019-03-26T10:54:14.465Z,1024.41
2019-03-26T10:55:14.448Z,1024.40
2019-03-26T10:56:14.428Z,1024.43
2019-03-26T10:57:14.410Z,1024.38
2019-03-26T10:58:14.390Z,1024.42
2019-03-26T10:59:14.371Z,1024.40
2019-03-26T11:00:14.351Z,1024.40
2019-03-26T11:01:14.332Z,1024.32
2019-03-26T11:02:14.314Z,1024.39
2019-03-26T11:03:14.304Z,1024.35
2019-03-26T11:04:14.279Z,1024.29
2019-03-26T11:05:14.264Z,1024.27
2019-03-26T11:06:14.239Z,1024.29
2019-03-26T11:07:58.245Z,1024.24
2019-03-26T11:08:58.233Z,1024.20
2019-03-26T11:09:58.206Z,1024.17
2019-03-26T11:10:58.187Z,1024.19
2019-03-26T11:11:58.178Z,1024.21
2019-03-26T11:13:00.978Z,1024.25
2019-03-26T11:13:58.872Z,1024.22
2019-03-26T11:14:58.116Z,1024.22
2019-03-26T11:15:58.100Z,1024.24
2019-03-26T11:16:58.079Z,1024.24
2019-03-26T11:17:58.069Z,1024.23
2019-03-26T11:18:58.041Z,1024.19
2019-03-26T11:19:58.110Z,1024.23
2019-03-26T11:21:02.769Z,1024.17
2019-03-26T11:21:57.989Z,1024.19
2019-03-26T11:22:57.966Z,1024.22
2019-03-26T11:23:57.960Z,1024.22
2019-03-26T11:24:57.930Z,1024.28
2019-03-26T11:25:57.912Z,1024.34
2019-03-26T11:26:57.899Z,1024.36
2019-03-26T11:27:57.874Z,1024.35
2019-03-26T11:28:57.855Z,1024.29
2019-03-26T11:29:57.843Z,1024.38
2019-03-26T11:30:57.818Z,1024.40
2019-03-26T11:31:57.848Z,1024.34
2019-03-26T11:32:57.779Z,1024.36
2019-03-26T11:33:57.759Z,1024.33
2019-03-26T11:34:57.740Z,1024.30
2019-03-26T11:35:57.728Z,1024.31
2019-03-26T11:36:57.710Z,1024.28
2019-03-26T11:37:57.685Z,1024.26
2019-03-26T11:38:57.683Z,1024.29
2019-03-26T11:39:57.643Z,1024.19
2019-03-26T11:40:57.625Z,1024.27
2019-03-26T11:41:57.605Z,1024.27
2019-03-26T11:42:57.593Z,1024.25
2019-03-26T11:43:57.576Z,1024.20
2019-03-26T11:44:59.443Z,1024.27
2019-03-26T11:45:57.529Z,1024.32
2019-03-26T11:46:57.533Z,1024.29
2019-03-26T11:47:57.489Z,1024.26
2019-03-26T11:48:57.471Z,1024.31
2019-03-26T11:49:57.451Z,1024.31
2019-03-26T11:50:57.431Z,1024.38
2019-03-26T11:51:57.414Z,1024.45
2019-03-26T11:52:57.443Z,1024.41
2019-03-26T11:53:57.373Z,1024.48
2019-03-26T11:54:57.361Z,1024.52
2019-03-26T11:55:57.335Z,1024.40
2019-03-26T11:56:57.314Z,1024.52
2019-03-26T11:57:57.296Z,1024.49
2019-03-26T11:58:57.276Z,1024.45
2019-03-26T11:59:57.256Z,1024.48
2019-03-26T12:00:57.237Z,1024.44
2019-03-26T12:01:57.233Z,1024.39
2019-03-26T12:02:57.196Z,1024.42
2019-03-26T12:03:57.184Z,1024.36
2019-03-26T12:04:57.159Z,1024.37
2019-03-26T12:05:57.139Z,1024.31